createdAt,value
2018-05-13T00:00:55.451Z,14.00
2018-05-13T00:03:22.446Z,14.00
2018-05-13T00:05:49.464Z,13.90
2018-05-13T00:08:15.731Z,13.90
2018-05-13T00:10:42.047Z,13.90
2018-05-13T00:13:08.339Z,13.80
2018-05-13T00:15:34.689Z,13.80
2018-05-13T00:18:01.952Z,13.80
2018-05-13T00:20:28.951Z,13.80
2018-05-13T00:22:55.580Z,13.70
2018-05-13T00:25:21.850Z,13.80
2018-05-13T00:27:48.186Z,13.60
2018-05-13T00:30:14.458Z,13.60
2018-05-13T00:32:41.496Z,13.60
2018-05-13T00:35:07.767Z,13.60
2018-05-13T00:37:34.046Z,13.50
2018-05-13T00:40:00.336Z,13.50
2018-05-13T00:42:27.036Z,13.40
2018-05-13T00:44:54.055Z,13.40
2018-05-13T00:47:21.071Z,13.40
2018-05-13T00:49:48.056Z,13.50
2018-05-13T00:52:14.332Z,13.50
2018-05-13T00:54:52.706Z,13.50
2018-05-13T00:57:18.995Z,13.60
2018-05-13T00:59:45.713Z,13.70
2018-05-13T01:02:11.996Z,13.90
2018-05-13T01:04:39.030Z,13.80
2018-05-13T01:07:05.640Z,13.70
2018-05-13T01:09:31.966Z,13.60
2018-05-13T01:11:58.215Z,13.70
2018-05-13T01:14:24.893Z,13.60
2018-05-13T01:16:51.175Z,13.40
2018-05-13T01:19:17.485Z,13.30
2018-05-13T01:21:44.492Z,13.30
2018-05-13T01:24:10.757Z,13.10
2018-05-13T01:26:37.415Z,13.00
2018-05-13T01:29:04.521Z,13.20
2018-05-13T01:31:30.781Z,13.30
2018-05-13T01:33:57.413Z,13.40
2018-05-13T01:36:23.683Z,13.30
2018-05-13T01:38:50.687Z,13.30
2018-05-13T01:41:17.351Z,13.30
2018-05-13T01:43:43.638Z,13.50
2018-05-13T01:46:10.701Z,13.40
2018-05-13T01:48:37.678Z,13.30
2018-05-13T01:51:04.055Z,13.40
2018-05-13T01:53:30.297Z,13.50
2018-05-13T01:55:57.346Z,13.80
2018-05-13T01:58:23.973Z,13.90
2018-05-13T02:00:50.196Z,13.90
2018-05-13T02:03:17.308Z,14.00
2018-05-13T02:05:43.568Z,13.90
2018-05-13T02:08:09.852Z,13.90
2018-05-13T02:10:36.065Z,14.00
2018-05-13T02:13:03.083Z,14.00
2018-05-13T02:15:29.278Z,14.00
2018-05-13T02:17:56.277Z,14.00
2018-05-13T02:20:22.466Z,14.00
2018-05-13T02:22:49.428Z,14.00
2018-05-13T02:25:16.367Z,14.00
2018-05-13T02:27:43.381Z,13.90
2018-05-13T02:30:09.601Z,14.00
2018-05-13T02:32:35.901Z,14.10
2018-05-13T02:35:02.872Z,14.10
2018-05-13T02:37:29.148Z,14.10
2018-05-13T02:39:55.393Z,14.10
2018-05-13T02:42:21.992Z,14.10
2018-05-13T02:44:48.968Z,14.20
2018-05-13T02:47:15.233Z,14.10
2018-05-13T02:49:41.893Z,14.20
2018-05-13T02:52:08.918Z,14.20
2018-05-13T02:54:35.188Z,14.10
2018-05-13T02:57:02.143Z,14.10
2018-05-13T02:59:29.148Z,14.20
2018-05-13T03:01:55.378Z,14.20
2018-05-13T03:04:22.013Z,14.20
2018-05-13T03:06:48.275Z,14.20
2018-05-13T03:09:14.509Z,14.30
2018-05-13T03:11:40.787Z,14.20
2018-05-13T03:14:07.832Z,14.10
2018-05-13T03:16:34.806Z,14.10
2018-05-13T03:19:01.147Z,14.10
2018-05-13T03:21:27.738Z,14.20
2018-05-13T03:23:54.007Z,14.10
2018-05-13T03:26:21.004Z,14.10
2018-05-13T03:28:47.276Z,14.10
2018-05-13T03:31:13.557Z,14.10
2018-05-13T03:33:39.804Z,14.10
2018-05-13T03:36:06.072Z,14.00
2018-05-13T03:38:32.342Z,14.00
2018-05-13T03:40:59.318Z,14.10
2018-05-13T03:43:25.532Z,14.20
2018-05-13T03:45:52.512Z,14.20
2018-05-13T03:48:18.752Z,14.20
2018-05-13T03:50:45.749Z,14.10
2018-05-13T03:53:12.022Z,14.10
2018-05-13T03:55:38.636Z,14.00
2018-05-13T03:58:05.627Z,14.00
2018-05-13T04:00:31.981Z,14.10
2018-05-13T04:02:58.229Z,14.00
2018-05-13T04:05:25.248Z,13.90
2018-05-13T04:11:15.547Z,13.80
2018-05-13T04:13:53.862Z,13.80
2018-05-13T04:16:20.532Z,13.70
2018-05-13T04:18:47.488Z,13.70
2018-05-13T04:21:13.741Z,13.70
2018-05-13T04:23:39.989Z,13.70
2018-05-13T04:26:06.638Z,13.60
2018-05-13T04:28:33.268Z,13.70
2018-05-13T04:31:00.299Z,13.60
2018-05-13T04:33:26.544Z,13.70
2018-05-13T04:35:52.787Z,13.70
2018-05-13T04:38:19.002Z,13.70
2018-05-13T04:40:45.224Z,13.70
2018-05-13T04:43:11.507Z,13.70
2018-05-13T04:45:38.462Z,13.80
2018-05-13T04:48:05.477Z,13.80
2018-05-13T04:50:32.457Z,13.90
2018-05-13T04:52:58.691Z,13.90
2018-05-13T04:55:24.969Z,13.90
2018-05-13T04:57:51.222Z,13.90
2018-05-13T05:00:17.491Z,13.90
2018-05-13T05:02:44.111Z,13.90
2018-05-13T05:05:10.372Z,13.90
2018-05-13T05:07:36.617Z,13.90
2018-05-13T05:10:02.917Z,13.90
2018-05-13T05:12:29.878Z,13.80
2018-05-13T05:17:25.878Z,13.70
2018-05-13T05:19:52.918Z,13.60
2018-05-13T05:22:19.889Z,13.70
2018-05-13T05:24:46.088Z,13.70
2018-05-13T05:27:12.335Z,13.80
2018-05-13T05:29:38.982Z,13.80
2018-05-13T05:32:05.991Z,14.00
2018-05-13T05:34:32.971Z,14.00
2018-05-13T05:36:59.228Z,14.00
2018-05-13T05:39:26.188Z,14.10
2018-05-13T05:41:53.186Z,14.10
2018-05-13T05:44:20.140Z,14.10
2018-05-13T05:46:46.371Z,14.20
2018-05-13T05:49:13.364Z,14.20
2018-05-13T05:51:40.012Z,14.20
2018-05-13T05:54:07.008Z,14.20
2018-05-13T05:56:34.042Z,14.10
2018-05-13T05:59:00.298Z,14.10
2018-05-13T06:01:27.641Z,14.10
2018-05-13T06:03:53.889Z,14.10
2018-05-13T06:06:20.539Z,14.20
2018-05-13T06:08:46.835Z,14.20
2018-05-13T06:11:13.824Z,14.20
2018-05-13T06:13:41.187Z,14.10
2018-05-13T06:16:07.784Z,14.10
2018-05-13T06:18:34.788Z,14.20
2018-05-13T06:21:01.053Z,14.10
2018-05-13T06:23:27.355Z,14.10
2018-05-13T06:25:54.025Z,14.20
2018-05-13T06:28:20.242Z,14.20
2018-05-13T06:30:46.497Z,14.10
2018-05-13T06:33:12.723Z,14.20
2018-05-13T06:35:39.370Z,14.20
2018-05-13T06:38:05.993Z,14.10
2018-05-13T06:40:32.640Z,14.10
2018-05-13T06:42:58.889Z,14.20
2018-05-13T06:45:25.185Z,14.30
2018-05-13T06:47:52.204Z,14.30
2018-05-13T06:50:18.477Z,14.30
2018-05-13T06:52:44.775Z,14.40
2018-05-13T06:55:11.495Z,14.50
2018-05-13T06:57:38.168Z,14.50
2018-05-13T07:00:04.428Z,14.50
2018-05-13T07:02:31.069Z,14.60
2018-05-13T07:04:58.039Z,14.60
2018-05-13T07:07:24.692Z,14.80
2018-05-13T07:09:50.988Z,15.00
2018-05-13T07:12:17.660Z,15.10
2018-05-13T07:14:43.884Z,15.10
2018-05-13T07:17:11.003Z,15.20
2018-05-13T07:19:37.713Z,15.10
2018-05-13T07:22:03.985Z,15.00
2018-05-13T07:24:30.313Z,15.10
2018-05-13T07:26:56.540Z,15.10
2018-05-13T07:29:23.189Z,15.10
2018-05-13T07:31:49.440Z,15.10
2018-05-13T07:34:16.125Z,15.10
2018-05-13T07:36:43.121Z,15.10
2018-05-13T07:39:09.739Z,15.20
2018-05-13T07:41:36.030Z,15.20
2018-05-13T07:44:02.309Z,15.20
2018-05-13T07:46:28.930Z,15.20
2018-05-13T07:48:55.953Z,15.20
2018-05-13T07:51:22.163Z,15.30
2018-05-13T07:53:48.409Z,15.40
2018-05-13T07:56:14.644Z,15.50
2018-05-13T07:58:40.956Z,15.60
2018-05-13T08:01:07.220Z,15.70
2018-05-13T08:03:33.491Z,15.90
2018-05-13T08:05:59.754Z,16.00
2018-05-13T08:08:26.796Z,15.90
2018-05-13T08:10:53.800Z,15.80
2018-05-13T08:13:20.100Z,15.70
2018-05-13T08:15:46.351Z,15.60
2018-05-13T08:18:12.641Z,15.60
2018-05-13T08:20:38.901Z,15.60
2018-05-13T08:23:05.905Z,15.50
2018-05-13T08:25:32.158Z,15.40
2018-05-13T08:27:58.381Z,15.50
2018-05-13T08:30:25.413Z,15.50
2018-05-13T08:32:51.643Z,15.60
2018-05-13T08:35:17.926Z,15.70
2018-05-13T08:37:44.199Z,15.70
2018-05-13T08:40:10.845Z,15.90
2018-05-13T08:42:37.099Z,16.00
2018-05-13T08:45:03.383Z,16.10
2018-05-13T08:47:30.369Z,16.10
2018-05-13T08:49:56.643Z,16.00
2018-05-13T08:52:22.925Z,16.00
2018-05-13T08:54:49.952Z,15.90
2018-05-13T08:57:16.209Z,15.90
2018-05-13T08:59:53.174Z,15.80
2018-05-13T09:02:19.416Z,15.80
2018-05-13T09:04:46.378Z,15.50
2018-05-13T09:07:13.389Z,15.30
2018-05-13T09:09:39.683Z,15.40
2018-05-13T09:12:06.340Z,15.30
2018-05-13T09:14:32.585Z,15.30
2018-05-13T09:16:58.814Z,15.40
2018-05-13T09:19:25.042Z,15.40
2018-05-13T09:21:51.681Z,15.40
2018-05-13T09:24:17.961Z,15.40
2018-05-13T09:26:44.201Z,15.40
2018-05-13T09:29:10.458Z,15.30
2018-05-13T09:31:36.796Z,15.30
2018-05-13T09:34:03.450Z,15.30
2018-05-13T09:36:30.469Z,15.40
2018-05-13T09:38:57.208Z,15.30
2018-05-13T09:41:23.449Z,15.30
2018-05-13T09:43:49.680Z,15.40
2018-05-13T09:46:16.726Z,15.70
2018-05-13T09:48:43.047Z,15.50
2018-05-13T09:51:09.379Z,15.50
2018-05-13T09:53:35.552Z,15.50
2018-05-13T09:56:02.161Z,15.50
2018-05-13T09:58:29.151Z,15.50
2018-05-13T10:00:55.426Z,15.50
2018-05-13T10:03:22.389Z,15.60
2018-05-13T10:05:48.655Z,15.60
2018-05-13T10:08:15.302Z,15.70
2018-05-13T10:10:41.594Z,15.70
2018-05-13T10:13:08.635Z,15.70
2018-05-13T10:15:35.234Z,15.70
2018-05-13T10:18:01.509Z,15.80
2018-05-13T10:20:28.459Z,15.80
2018-05-13T10:22:54.758Z,15.70
2018-05-13T10:25:22.140Z,15.80
2018-05-13T10:27:48.416Z,15.80
2018-05-13T10:30:15.370Z,15.70
2018-05-13T10:32:42.399Z,15.60
2018-05-13T10:35:08.911Z,15.60
2018-05-13T10:37:35.721Z,15.50
2018-05-13T10:40:02.736Z,15.30
2018-05-13T10:42:30.788Z,15.30
2018-05-13T10:44:57.681Z,15.30
2018-05-13T10:47:25.045Z,15.20
2018-05-13T10:49:52.911Z,15.10
2018-05-13T10:52:19.508Z,15.10
2018-05-13T10:54:46.950Z,15.20
2018-05-13T10:57:13.713Z,15.30
2018-05-13T10:59:40.245Z,15.30
2018-05-13T11:02:06.603Z,15.30
2018-05-13T11:04:33.099Z,15.30
2018-05-13T11:06:59.863Z,15.30
2018-05-13T11:09:26.939Z,15.30
2018-05-13T11:11:54.031Z,15.30
2018-05-13T11:14:20.934Z,15.40
2018-05-13T11:16:48.696Z,15.60
2018-05-13T11:19:15.816Z,15.70
2018-05-13T11:21:42.462Z,15.80
2018-05-13T11:24:09.475Z,15.80
2018-05-13T11:26:36.500Z,15.80
2018-05-13T11:29:02.782Z,15.80
2018-05-13T11:31:29.097Z,15.70
2018-05-13T11:33:56.036Z,15.70
2018-05-13T11:36:22.356Z,15.70
2018-05-13T11:38:48.606Z,15.80
2018-05-13T11:41:15.287Z,15.90
2018-05-13T11:43:42.301Z,16.10
2018-05-13T11:46:08.960Z,16.20
2018-05-13T11:48:35.979Z,16.30
2018-05-13T11:51:03.046Z,16.30
2018-05-13T11:53:29.272Z,16.10
2018-05-13T11:55:56.276Z,15.90
2018-05-13T11:58:23.340Z,15.80
2018-05-13T12:00:49.587Z,15.70
2018-05-13T12:03:15.934Z,15.70
2018-05-13T12:08:13.905Z,15.90
2018-05-13T12:10:40.185Z,15.80
2018-05-13T12:13:06.796Z,15.80
2018-05-13T12:15:33.115Z,15.80
2018-05-13T12:17:59.387Z,15.80
2018-05-13T12:20:26.454Z,15.90
2018-05-13T12:22:52.730Z,15.80
2018-05-13T12:25:19.055Z,15.80
2018-05-13T12:27:45.336Z,15.80
2018-05-13T12:30:12.311Z,15.60
2018-05-13T12:32:39.296Z,15.60
2018-05-13T12:35:05.566Z,15.50
2018-05-13T12:37:31.887Z,15.50
2018-05-13T12:39:58.495Z,15.50
2018-05-13T12:42:24.831Z,15.60
2018-05-13T12:44:51.786Z,15.80
2018-05-13T12:47:18.074Z,16.10
2018-05-13T12:49:44.366Z,16.30
2018-05-13T12:52:11.017Z,16.60
2018-05-13T12:54:37.440Z,17.00
2018-05-13T12:57:03.661Z,17.30
2018-05-13T12:59:30.662Z,17.80
2018-05-13T13:01:56.932Z,17.90
2018-05-13T13:04:23.192Z,18.00
2018-05-13T13:06:49.472Z,18.10
2018-05-13T13:09:15.717Z,18.30
2018-05-13T13:11:41.915Z,18.50
2018-05-13T13:14:08.171Z,18.40
2018-05-13T13:16:34.451Z,18.80
2018-05-13T13:19:01.556Z,19.10
2018-05-13T13:21:27.820Z,19.10
2018-05-13T13:23:54.087Z,19.70
2018-05-13T13:26:21.081Z,20.00
2018-05-13T13:28:47.403Z,20.00
2018-05-13T13:31:13.727Z,19.40
2018-05-13T13:33:39.956Z,19.30
2018-05-13T13:36:06.255Z,18.90
2018-05-13T13:38:32.514Z,18.50
2018-05-13T13:40:59.216Z,18.10
2018-05-13T13:43:25.511Z,17.90
2018-05-13T13:45:52.515Z,18.00
2018-05-13T13:48:18.737Z,17.80
2018-05-13T13:50:45.007Z,17.80
2018-05-13T13:53:11.252Z,18.00
2018-05-13T13:55:37.475Z,20.10
2018-05-13T13:58:03.791Z,21.10
2018-05-13T14:00:30.158Z,21.50
2018-05-13T14:02:57.218Z,22.10
2018-05-13T14:05:23.532Z,21.90
2018-05-13T14:07:51.275Z,20.90
2018-05-13T14:10:17.473Z,20.00
2018-05-13T14:12:44.248Z,19.10
2018-05-13T14:15:10.531Z,18.60
2018-05-13T14:17:36.820Z,18.40
2018-05-13T14:20:03.846Z,18.20
2018-05-13T14:22:30.086Z,18.00
2018-05-13T14:24:57.056Z,17.70
2018-05-13T14:27:23.320Z,17.40
2018-05-13T14:29:50.345Z,17.20
2018-05-13T14:32:16.613Z,17.10
2018-05-13T14:34:43.287Z,17.10
2018-05-13T14:37:09.545Z,17.10
2018-05-13T14:39:36.562Z,17.20
2018-05-13T14:42:02.807Z,17.40
2018-05-13T14:44:29.116Z,17.50
2018-05-13T14:46:55.347Z,17.50
2018-05-13T14:49:22.406Z,17.40
2018-05-13T14:51:49.291Z,17.40
2018-05-13T14:54:16.338Z,17.20
2018-05-13T14:56:43.362Z,17.00
2018-05-13T14:59:09.647Z,16.80
2018-05-13T15:01:36.595Z,16.70
2018-05-13T15:04:04.150Z,16.60
2018-05-13T15:06:30.796Z,16.50
2018-05-13T15:08:57.443Z,16.30
2018-05-13T15:11:24.471Z,16.20
2018-05-13T15:13:50.723Z,16.10
2018-05-13T15:16:17.428Z,16.00
2018-05-13T15:18:44.048Z,15.90
2018-05-13T15:21:10.672Z,15.90
2018-05-13T15:23:37.681Z,15.80
2018-05-13T15:26:04.000Z,15.80
2018-05-13T15:28:31.017Z,15.70
2018-05-13T15:30:58.036Z,15.60
2018-05-13T15:33:24.317Z,15.60
2018-05-13T15:35:50.988Z,15.50
2018-05-13T15:38:17.646Z,15.40
2018-05-13T15:40:43.931Z,15.30
2018-05-13T15:43:11.081Z,15.20
2018-05-13T15:45:38.024Z,15.20
2018-05-13T15:48:05.084Z,15.10
2018-05-13T15:50:31.761Z,15.00
2018-05-13T15:52:58.478Z,14.90
2018-05-13T15:55:25.470Z,14.80
2018-05-13T15:57:51.823Z,14.70
2018-05-13T16:00:18.112Z,14.70
2018-05-13T16:02:44.833Z,14.60
2018-05-13T16:05:11.107Z,14.60
2018-05-13T16:07:37.408Z,14.60
2018-05-13T16:10:03.714Z,14.60
2018-05-13T16:12:30.017Z,14.60
2018-05-13T16:14:56.694Z,14.60
2018-05-13T16:17:24.077Z,14.60
2018-05-13T16:19:50.622Z,14.70
2018-05-13T16:22:16.912Z,14.70
2018-05-13T16:24:43.958Z,14.70
2018-05-13T16:27:10.238Z,14.70
2018-05-13T16:29:38.218Z,14.60
2018-05-13T16:32:05.654Z,14.60
2018-05-13T16:34:32.997Z,14.50
2018-05-13T16:36:59.908Z,14.50
2018-05-13T16:39:26.878Z,14.50
2018-05-13T16:41:54.692Z,14.50
2018-05-13T16:44:21.768Z,14.60
2018-05-13T16:46:48.051Z,14.60
2018-05-13T16:49:15.711Z,14.50
2018-05-13T16:51:42.770Z,14.50
2018-05-13T16:54:09.444Z,14.40
2018-05-13T16:56:36.871Z,14.30
2018-05-13T16:59:03.945Z,14.30
2018-05-13T17:01:30.208Z,14.30
2018-05-13T17:03:56.497Z,14.20
2018-05-13T17:06:23.476Z,14.10
2018-05-13T17:08:49.821Z,14.10
2018-05-13T17:11:17.757Z,14.00
2018-05-13T17:13:44.827Z,14.00
2018-05-13T17:16:11.861Z,14.00
2018-05-13T17:18:38.506Z,13.90
2018-05-13T17:21:05.504Z,13.90
2018-05-13T17:23:31.889Z,13.90
2018-05-13T17:25:58.108Z,13.80
2018-05-13T17:28:24.412Z,13.80
2018-05-13T17:30:51.427Z,13.80
2018-05-13T17:33:18.425Z,13.80
2018-05-13T17:35:44.685Z,13.70
2018-05-13T17:38:10.968Z,13.70
2018-05-13T17:40:38.023Z,13.70
2018-05-13T17:43:05.033Z,13.70
2018-05-13T17:45:32.234Z,13.60
2018-05-13T17:47:58.559Z,13.60
2018-05-13T17:50:25.618Z,13.60
2018-05-13T17:52:52.618Z,13.50
2018-05-13T17:55:19.614Z,13.50
2018-05-13T17:57:46.306Z,13.50
2018-05-13T18:00:12.592Z,13.40
2018-05-13T18:02:38.848Z,13.40
2018-05-13T18:05:05.875Z,13.30
2018-05-13T18:07:32.259Z,13.20
2018-05-13T18:09:58.545Z,13.20
2018-05-13T18:12:24.872Z,13.20
2018-05-13T18:14:51.187Z,13.20
2018-05-13T18:17:18.757Z,13.10
2018-05-13T18:19:45.085Z,13.10
2018-05-13T18:22:11.417Z,13.10
2018-05-13T18:24:37.771Z,13.00
2018-05-13T18:27:04.705Z,13.00
2018-05-13T18:29:31.193Z,13.00
2018-05-13T18:31:57.508Z,13.00
2018-05-13T18:34:23.812Z,13.00
2018-05-13T18:36:52.665Z,12.90
2018-05-13T18:39:20.093Z,12.90
2018-05-13T18:41:46.371Z,12.90
2018-05-13T18:44:14.429Z,12.80
2018-05-13T18:46:41.297Z,12.80
2018-05-13T18:49:07.593Z,12.70
2018-05-13T18:51:34.308Z,12.70
2018-05-13T18:54:02.804Z,12.60
2018-05-13T18:56:30.232Z,12.60
2018-05-13T18:58:57.950Z,12.60
2018-05-13T19:01:25.869Z,12.50
2018-05-13T19:03:52.854Z,12.50
2018-05-13T19:06:19.389Z,12.40
2018-05-13T19:08:47.064Z,12.40
2018-05-13T19:11:23.224Z,12.40
2018-05-13T19:13:50.702Z,12.40
2018-05-13T19:16:17.080Z,12.50
2018-05-13T19:18:44.290Z,12.50
2018-05-13T19:21:10.564Z,12.50
2018-05-13T19:23:37.603Z,12.50
2018-05-13T19:26:03.883Z,12.50
2018-05-13T19:28:30.145Z,12.50
2018-05-13T19:30:57.678Z,12.50
2018-05-13T19:33:24.653Z,12.50
2018-05-13T19:35:50.963Z,12.50
2018-05-13T19:38:18.223Z,12.50
2018-05-13T19:40:44.733Z,12.50
2018-05-13T19:43:11.570Z,12.60
2018-05-13T19:45:38.277Z,12.60
2018-05-13T19:48:06.107Z,12.60
2018-05-13T19:50:33.893Z,12.50
2018-05-13T19:53:02.281Z,12.50
2018-05-13T19:55:29.269Z,12.50
2018-05-13T19:57:57.339Z,12.40
2018-05-13T20:00:24.508Z,12.40
2018-05-13T20:02:51.896Z,12.40
2018-05-13T20:05:19.652Z,12.30
2018-05-13T20:07:45.968Z,12.40
2018-05-13T20:10:12.272Z,12.30
2018-05-13T20:12:39.698Z,12.30
2018-05-13T20:15:06.707Z,12.30
2018-05-13T20:17:34.925Z,12.20
2018-05-13T20:20:03.183Z,12.20
2018-05-13T20:22:31.066Z,12.20
2018-05-13T20:24:57.809Z,12.20
2018-05-13T20:27:24.884Z,12.10
2018-05-13T20:29:52.846Z,12.10
2018-05-13T20:32:19.098Z,12.00
2018-05-13T20:34:46.778Z,12.00
2018-05-13T20:37:13.405Z,11.90
2018-05-13T20:39:39.668Z,11.90
2018-05-13T20:42:06.308Z,11.90
2018-05-13T20:44:32.609Z,11.80
2018-05-13T20:46:59.044Z,11.80
2018-05-13T20:49:25.452Z,12.90
2018-05-13T20:51:52.084Z,11.70
2018-05-13T20:54:18.378Z,11.70
2018-05-13T20:56:45.404Z,11.70
2018-05-13T20:59:12.434Z,11.70
2018-05-13T21:01:39.366Z,11.70
2018-05-13T21:04:05.616Z,11.70
2018-05-13T21:06:31.925Z,11.70
2018-05-13T21:08:58.184Z,11.60
2018-05-13T21:11:24.483Z,11.60
2018-05-13T21:13:50.739Z,11.60
2018-05-13T21:16:17.031Z,11.70
2018-05-13T21:18:44.330Z,11.70
2018-05-13T21:21:12.405Z,11.70
2018-05-13T21:23:38.650Z,11.70
2018-05-13T21:26:05.389Z,11.80
2018-05-13T21:28:33.489Z,11.80
2018-05-13T21:30:59.791Z,11.70
2018-05-13T21:33:26.544Z,11.80
2018-05-13T21:35:57.560Z,11.70
2018-05-13T21:38:24.883Z,11.70
2018-05-13T21:40:51.149Z,11.70
2018-05-13T21:43:18.138Z,11.70
2018-05-13T21:45:44.935Z,11.70
2018-05-13T21:48:11.831Z,11.70
2018-05-13T21:50:38.841Z,11.70
2018-05-13T21:53:05.083Z,11.70
2018-05-13T21:55:32.123Z,11.60
2018-05-13T21:57:58.383Z,11.60
2018-05-13T22:00:25.375Z,11.70
2018-05-13T22:02:52.364Z,11.70
2018-05-13T22:05:18.644Z,11.70
2018-05-13T22:07:44.893Z,11.90
2018-05-13T22:10:11.149Z,11.90
2018-05-13T22:12:37.743Z,12.00
2018-05-13T22:15:04.704Z,12.00
2018-05-13T22:17:31.783Z,12.00
2018-05-13T22:19:58.772Z,11.90
2018-05-13T22:22:24.992Z,11.90
2018-05-13T22:24:51.984Z,12.00
2018-05-13T22:27:18.960Z,12.00
2018-05-13T22:29:45.954Z,12.00
2018-05-13T22:32:12.528Z,12.00
2018-05-13T22:34:39.528Z,12.00
2018-05-13T22:37:06.124Z,11.90
2018-05-13T22:39:33.179Z,11.90
2018-05-13T22:42:00.165Z,11.90
2018-05-13T22:44:33.125Z,11.90
2018-05-13T22:46:59.808Z,11.90
2018-05-13T22:49:26.039Z,12.00
2018-05-13T22:51:52.284Z,12.10
2018-05-13T22:54:20.506Z,12.10
2018-05-13T22:56:47.506Z,12.10
2018-05-13T22:59:13.734Z,12.00
2018-05-13T23:01:40.033Z,11.90
2018-05-13T23:04:07.145Z,12.00
2018-05-13T23:06:33.374Z,12.10
2018-05-13T23:08:59.634Z,12.10
2018-05-13T23:11:26.045Z,12.00
2018-05-13T23:13:52.320Z,12.10
2018-05-13T23:16:19.305Z,12.10
2018-05-13T23:18:45.915Z,12.10
2018-05-13T23:21:13.678Z,12.00
2018-05-13T23:23:39.999Z,12.00
2018-05-13T23:26:06.224Z,12.00
2018-05-13T23:28:32.555Z,12.00
2018-05-13T23:30:58.714Z,11.90
2018-05-13T23:33:24.941Z,11.90
2018-05-13T23:35:51.184Z,11.90
2018-05-13T23:38:17.437Z,11.90
2018-05-13T23:40:43.680Z,11.90
2018-05-13T23:43:10.719Z,11.90
2018-05-13T23:45:37.705Z,11.90
2018-05-13T23:48:04.665Z,11.90
2018-05-13T23:50:30.916Z,11.90
2018-05-13T23:52:57.188Z,11.80
2018-05-13T23:55:23.420Z,11.80
2018-05-13T23:57:49.681Z,11.80
